Time;durP1;ratioP1;P1;durP2;ratioP2;P2;SDS_P1;SDS_P2;PMS_P1;PMS_P2;Temp;Humidity;BMP_temperature;BMP_pressure;BME280_temperature;BME280_humidity;BME280_pressure;Samples;Min_cycle;Max_cycle;Signal;HPM_P1;HPM_P2
2021/10/23 00:00:46;;;;;;;4.43;3.45;;;6.70;99.90;;;6.27;100.00;102368.38;4102265;29;20027;-79
2021/10/23 00:02:47;;;;;;;7.78;3.35;;;6.70;99.90;;;6.34;99.72;102361.81;4107748;28;20394;-79
2021/10/23 00:04:48;;;;;;;5.78;4.10;;;6.70;99.90;;;6.31;98.93;102362.00;4119619;28;20106;-79
2021/10/23 00:06:49;;;;;;;5.47;3.60;;;6.70;99.90;;;6.36;98.38;102367.00;4102318;28;20060;-79
2021/10/23 00:08:49;;;;;;;4.72;4.03;;;6.60;99.90;;;6.27;99.08;102357.88;4118394;28;20034;-79
2021/10/23 00:10:50;;;;;;;5.85;3.60;;;6.60;99.90;;;6.18;100.00;102353.19;4102214;28;20039;-79
2021/10/23 00:12:51;;;;;;;4.97;3.75;;;6.60;99.90;;;6.23;100.00;102345.03;4108023;28;20122;-78
2021/10/23 00:14:52;;;;;;;4.85;3.35;;;6.60;99.90;;;6.15;100.00;102337.63;4118308;28;20069;-78
2021/10/23 00:16:53;;;;;;;5.22;3.60;;;6.60;99.90;;;6.18;100.00;102349.72;4118119;28;20031;-78
2021/10/23 00:18:54;;;;;;;5.53;3.80;;;6.60;99.90;;;6.20;100.00;102339.97;4118056;28;20101;-78
2021/10/23 00:20:55;;;;;;;8.30;3.33;;;6.60;99.90;;;6.23;100.00;102342.41;4102133;29;20023;-78
2021/10/23 00:22:56;;;;;;;5.70;3.97;;;6.60;99.90;;;6.17;100.00;102343.63;4117797;28;20118;-78
2021/10/23 00:24:57;;;;;;;7.07;4.32;;;6.60;99.90;;;6.11;100.00;102341.34;4133108;28;20102;-78
2021/10/23 00:26:58;;;;;;;5.57;3.78;;;6.60;99.90;;;6.10;100.00;102343.13;4150285;28;20037;-78
2021/10/23 00:28:59;;;;;;;7.85;3.95;;;6.50;99.90;;;6.08;100.00;102333.66;4119189;28;20027;-78
2021/10/23 00:31:00;;;;;;;7.90;3.90;;;6.60;99.90;;;6.12;100.00;102338.63;4101828;28;20059;-78
2021/10/23 00:33:02;;;;;;;5.70;3.90;;;6.50;99.90;;;6.08;100.00;102346.78;4117797;28;20027;-78
2021/10/23 00:35:05;;;;;;;6.55;3.95;;;6.50;99.90;;;6.13;100.00;102349.97;4119088;28;20026;-78
2021/10/23 00:37:06;;;;;;;9.00;4.18;;;6.50;99.90;;;6.19;100.00;102354.84;4117940;28;20027;-78
2021/10/23 00:39:06;;;;;;;7.25;4.63;;;6.50;99.90;;;6.33;100.00;102359.31;4117745;28;20027;-78
2021/10/23 00:41:07;;;;;;;5.95;4.00;;;6.50;99.90;;;6.25;99.37;102343.16;4101862;28;20085;-78
2021/10/23 00:43:08;;;;;;;6.60;4.10;;;6.60;99.90;;;6.14;100.00;102343.81;4117712;28;20038;-78
2021/10/23 00:45:09;;;;;;;5.85;4.13;;;6.60;99.90;;;6.08;100.00;102339.75;4102048;29;20038;-78
2021/10/23 00:47:16;;;;;;;4.82;3.53;;;6.50;99.90;;;6.11;100.00;102339.59;4110973;28;20081;-78
2021/10/23 00:49:17;;;;;;;6.32;3.85;;;6.50;99.90;;;6.15;100.00;102345.50;4102102;28;20494;-78
2021/10/23 00:51:18;;;;;;;7.03;4.30;;;6.50;99.90;;;6.11;99.95;102341.34;4101518;29;20072;-78
2021/10/23 00:53:22;;;;;;;7.35;4.43;;;6.50;99.90;;;6.13;99.72;102342.09;4117634;28;20559;-78
2021/10/23 00:55:23;;;;;;;6.93;3.40;;;6.40;99.90;;;5.99;100.00;102331.56;4117464;28;20080;-79
2021/10/23 00:57:25;;;;;;;4.93;3.72;;;6.40;99.90;;;6.00;100.00;102333.28;4117601;28;20023;-78
2021/10/23 00:59:26;;;;;;;5.18;4.32;;;6.40;99.90;;;6.00;100.00;102335.91;4117550;28;20041;-78
2021/10/23 01:01:27;;;;;;;6.93;4.38;;;6.40;99.90;;;6.08;99.55;102336.28;4101539;29;20086;-78
2021/10/23 01:03:28;;;;;;;7.30;4.80;;;6.40;99.90;;;6.09;99.33;102327.50;4111220;28;20027;-78
2021/10/23 01:05:29;;;;;;;8.77;4.43;;;6.40;99.90;;;6.00;99.76;102328.03;4117670;28;20030;-78
2021/10/23 01:07:30;;;;;;;5.88;4.03;;;6.30;99.90;;;5.99;100.00;102323.72;4149747;28;20086;-78
2021/10/23 01:09:35;;;;;;;4.38;3.40;;;6.40;99.90;;;5.95;100.00;102325.66;4101209;28;20039;-78
2021/10/23 01:11:36;;;;;;;6.70;4.53;;;6.40;99.90;;;5.95;100.00;102319.59;4101632;28;20085;-78
2021/10/23 01:13:37;;;;;;;5.50;4.03;;;6.40;99.90;;;6.03;100.00;102320.00;4113192;28;20125;-78
2021/10/23 01:15:38;;;;;;;5.13;3.97;;;6.40;99.90;;;6.02;100.00;102318.31;4117160;28;20390;-78
2021/10/23 01:17:39;;;;;;;5.63;3.70;;;6.30;99.90;;;5.99;100.00;102321.09;4118881;28;20035;-78
2021/10/23 01:19:40;;;;;;;7.82;4.32;;;6.40;99.90;;;5.96;100.00;102321.28;4117320;28;20047;-78
2021/10/23 01:21:44;;;;;;;8.75;4.22;;;6.40;99.90;;;6.00;100.00;102321.00;4101556;28;20031;-78
2021/10/23 01:23:46;;;;;;;6.68;3.80;;;6.30;99.90;;;6.06;99.70;102315.41;4118053;28;20074;-78
2021/10/23 01:25:47;;;;;;;4.90;3.80;;;6.40;99.90;;;6.01;99.52;102309.59;4117359;28;20083;-79
2021/10/23 01:27:54;;;;;;;5.35;4.30;;;6.40;99.90;;;5.96;100.00;102313.41;4117316;28;20034;-79
2021/10/23 01:29:55;;;;;;;5.35;3.67;;;6.30;99.90;;;5.90;100.00;102313.78;4117814;28;20023;-78
2021/10/23 01:31:57;;;;;;;6.50;3.88;;;6.30;99.90;;;5.93;100.00;102310.97;4117336;28;20114;-79
2021/10/23 01:33:59;;;;;;;5.72;4.28;;;6.30;99.90;;;5.94;100.00;102307.44;4117575;28;20053;-78
2021/10/23 01:36:12;;;;;;;5.93;3.95;;;6.40;99.90;;;5.90;100.00;102312.00;4116910;28;20089;-78
2021/10/23 01:38:13;;;;;;;5.55;3.47;;;6.30;99.90;;;6.04;99.42;102316.44;4101344;28;20027;-78
2021/10/23 01:40:18;;;;;;;5.40;4.45;;;6.30;99.90;;;5.96;99.25;102309.03;4106925;28;20092;-79
2021/10/23 01:42:19;;;;;;;4.93;3.95;;;6.30;99.90;;;5.92;100.00;102314.50;4118421;28;20124;-79
2021/10/23 01:44:26;;;;;;;6.43;4.22;;;6.30;99.90;;;5.94;100.00;102321.34;4117165;28;20038;-78
2021/10/23 01:46:27;;;;;;;4.78;3.85;;;6.30;99.90;;;5.93;100.00;102313.59;4118203;28;20133;-78
2021/10/23 01:48:28;;;;;;;4.93;4.07;;;6.30;99.90;;;5.83;99.55;102299.28;4118266;28;20397;-78
2021/10/23 01:50:29;;;;;;;6.88;4.00;;;6.30;99.90;;;5.82;99.79;102302.88;4118348;28;20027;-78
2021/10/23 01:52:30;;;;;;;6.00;4.65;;;6.20;99.90;;;5.88;99.20;102310.41;4118138;28;20031;-78
2021/10/23 01:54:31;;;;;;;9.20;4.72;;;6.20;99.90;;;5.78;98.57;102301.34;4100668;29;20030;-78
2021/10/23 01:56:36;;;;;;;7.93;4.38;;;6.10;99.90;;;5.74;98.69;102311.13;4106790;28;20161;-78
2021/10/23 01:58:36;;;;;;;4.20;3.67;;;6.20;99.90;;;5.68;99.56;102294.94;4117024;28;20081;-78
2021/10/23 02:00:38;;;;;;;8.15;4.38;;;6.10;99.90;;;5.79;99.09;102300.41;4116946;28;20456;-79
2021/10/23 02:02:40;;;;;;;5.55;4.28;;;6.10;99.90;;;5.80;99.23;102296.84;4100751;28;20027;-78
2021/10/23 02:04:40;;;;;;;7.18;4.70;;;6.20;99.90;;;5.83;99.27;102294.06;4118117;28;20041;-78
2021/10/23 02:06:41;;;;;;;5.72;4.13;;;6.20;99.90;;;5.85;98.76;102290.47;4116828;28;20039;-78
2021/10/23 02:08:42;;;;;;;6.72;4.30;;;6.10;99.90;;;5.77;98.21;102294.41;4116649;28;20015;-79
2021/10/23 02:10:43;;;;;;;6.90;4.45;;;6.20;99.90;;;5.65;99.12;102284.63;4100722;28;20035;-78
2021/10/23 02:12:44;;;;;;;6.45;4.22;;;6.10;99.90;;;5.62;99.63;102295.28;4121810;28;20037;-78
2021/10/23 02:14:46;;;;;;;6.78;4.50;;;6.10;99.90;;;5.62;99.82;102287.41;4108988;28;20033;-78
2021/10/23 02:16:47;;;;;;;9.40;4.97;;;6.10;99.90;;;5.71;99.21;102300.00;4116780;28;20022;-78
2021/10/23 02:18:48;;;;;;;5.82;3.97;;;6.10;99.90;;;5.67;97.23;102288.03;4116498;28;20043;-78
2021/10/23 02:20:49;;;;;;;6.18;4.28;;;6.00;99.90;;;5.69;97.65;102296.63;4116660;28;20461;-78
2021/10/23 02:22:50;;;;;;;8.63;3.78;;;6.10;99.90;;;5.54;98.21;102288.72;4117974;28;20031;-78
2021/10/23 02:24:51;;;;;;;7.93;4.28;;;6.00;99.90;;;5.43;98.75;102278.00;4100335;29;20042;-78
2021/10/23 02:26:51;;;;;;;7.68;4.32;;;6.00;99.90;;;5.51;98.46;102286.28;4116231;28;20495;-78
2021/10/23 02:28:52;;;;;;;4.80;3.33;;;5.90;99.90;;;5.48;98.43;102282.97;4117845;28;20113;-78
2021/10/23 02:30:54;;;;;;;6.53;3.95;;;5.90;99.90;;;5.50;98.09;102299.41;4117876;28;20113;-78
2021/10/23 02:32:54;;;;;;;4.80;4.03;;;5.90;99.90;;;5.47;98.00;102295.22;4116572;28;20422;-78
2021/10/23 02:34:55;;;;;;;6.53;4.20;;;5.90;99.90;;;5.54;97.49;102286.09;4116334;28;20243;-78
2021/10/23 02:36:56;;;;;;;7.53;4.25;;;5.90;99.90;;;5.61;96.86;102280.50;4117776;28;20031;-78
2021/10/23 02:38:58;;;;;;;8.60;4.53;;;5.90;99.90;;;5.45;97.00;102285.75;4117558;28;20042;-78
2021/10/23 02:40:59;;;;;;;5.93;4.72;;;5.90;99.90;;;5.44;97.40;102287.53;4117674;28;20084;-78
2021/10/23 02:43:00;;;;;;;7.68;4.15;;;5.80;99.90;;;5.29;98.12;102279.69;4117483;28;20027;-78
2021/10/23 02:45:01;;;;;;;6.95;4.13;;;5.80;99.90;;;5.27;98.95;102282.38;4117767;28;20556;-78
2021/10/23 02:47:02;;;;;;;6.68;4.03;;;5.80;99.90;;;5.35;99.17;102289.81;4115699;28;20444;-78
2021/10/23 02:49:07;;;;;;;5.63;4.18;;;5.80;99.90;;;5.36;98.64;102283.66;4116365;28;20031;-78
2021/10/23 02:51:08;;;;;;;;;;;5.70;99.90;;;5.39;97.85;102284.34;4116815;28;20088;-78
2021/10/23 02:53:08;;;;;;;6.28;4.47;;;5.70;99.90;;;5.42;97.22;102284.16;4117574;28;19925;-78
2021/10/23 02:55:09;;;;;;;6.13;4.95;;;5.80;99.90;;;5.44;97.80;102290.16;4117359;28;20023;-78
2021/10/23 02:57:10;;;;;;;6.82;4.40;;;5.80;99.90;;;5.46;97.70;102290.06;4116306;28;20045;-78
2021/10/23 02:59:12;;;;;;;8.35;4.72;;;5.80;99.90;;;5.38;97.83;102287.03;4117438;28;20452;-78
2021/10/23 03:01:13;;;;;;;5.72;4.38;;;5.80;99.90;;;5.30;98.69;102286.59;4116587;28;20057;-78
2021/10/23 03:03:14;;;;;;;6.28;4.72;;;5.80;99.90;;;5.22;99.56;102287.03;4116390;28;20066;-78
2021/10/23 03:05:16;;;;;;;8.02;5.20;;;5.80;99.90;;;5.30;99.44;102290.06;4117407;28;20038;-78
2021/10/23 03:07:17;;;;;;;5.63;4.72;;;5.70;99.90;;;5.37;98.19;102283.59;4117327;28;20093;-78
2021/10/23 03:09:18;;;;;;;7.22;4.13;;;5.70;99.90;;;5.31;97.94;102285.69;4117192;28;20035;-78
2021/10/23 03:11:19;;;;;;;7.30;4.60;;;5.70;99.90;;;5.30;98.48;102286.59;4117354;28;20034;-78
2021/10/23 03:13:20;;;;;;;7.97;5.07;;;5.70;99.90;;;5.17;98.81;102278.59;4116055;28;20031;-78
2021/10/23 03:15:21;;;;;;;6.10;4.53;;;5.70;99.90;;;5.25;99.12;102284.25;4117228;28;20562;-78
2021/10/23 03:17:22;;;;;;;9.63;5.38;;;5.60;99.90;;;5.33;98.45;102286.44;4100101;28;20023;-78
2021/10/23 03:19:23;;;;;;;6.30;4.60;;;5.60;99.90;;;5.40;96.62;102278.19;4106629;28;20065;-78
2021/10/23 03:21:24;;;;;;;10.68;4.95;;;5.70;99.90;;;5.34;97.03;102268.06;4116140;28;20019;-78
2021/10/23 03:23:26;;;;;;;7.28;5.63;;;5.70;99.90;;;5.23;98.26;102272.16;4117140;28;20030;-78
2021/10/23 03:25:26;;;;;;;6.20;4.75;;;5.70;99.90;;;5.18;99.13;102274.19;4117081;28;20397;-79
2021/10/23 03:27:28;;;;;;;6.85;5.35;;;5.70;99.90;;;5.26;99.63;102278.06;4117382;28;20035;-78
2021/10/23 03:29:29;;;;;;;6.57;4.72;;;5.70;99.90;;;5.29;99.09;102277.91;4116177;28;20061;-78
2021/10/23 03:31:31;;;;;;;5.40;4.32;;;5.60;99.90;;;5.27;98.71;102282.38;4117146;28;20106;-78
2021/10/23 03:33:32;;;;;;;6.13;4.97;;;5.70;99.90;;;5.30;98.38;102287.47;4117127;28;20095;-78
2021/10/23 03:35:33;;;;;;;5.10;4.45;;;5.60;99.90;;;5.35;98.05;102271.50;4100023;28;20023;-78
2021/10/23 03:37:35;;;;;;;6.85;4.75;;;5.70;99.90;;;5.26;98.45;102278.06;4115930;28;20031;-78
2021/10/23 03:39:38;;;;;;;5.40;4.90;;;5.70;99.90;;;5.25;98.39;102279.03;4099525;28;20039;-78
2021/10/23 03:41:40;;;;;;;5.97;4.43;;;5.60;99.90;;;5.30;97.43;102271.75;4103391;28;20049;-78
2021/10/23 03:43:41;;;;;;;6.70;4.38;;;5.60;99.90;;;5.35;97.03;102281.94;4117009;28;20163;-78
2021/10/23 03:45:42;;;;;;;6.82;5.35;;;5.70;99.90;;;5.32;97.39;102276.88;4115821;28;20027;-78
2021/10/23 03:47:43;;;;;;;6.85;4.22;;;5.70;99.90;;;5.15;98.25;102277.84;4115920;28;20090;-78
2021/10/23 03:49:45;;;;;;;7.30;4.65;;;5.60;99.90;;;5.18;98.87;102285.50;4099825;29;20024;-78
2021/10/23 03:51:46;;;;;;;7.38;5.32;;;5.60;99.90;;;5.15;98.92;102274.38;4106996;28;20063;-78
2021/10/23 03:53:47;;;;;;;6.50;4.95;;;5.60;99.90;;;5.18;98.22;102264.59;4116622;28;20100;-78
2021/10/23 03:55:48;;;;;;;7.95;4.95;;;5.60;99.90;;;5.20;97.91;102277.56;4116908;28;20037;-78
2021/10/23 03:57:49;;;;;;;9.73;6.15;;;5.60;99.90;;;5.16;97.52;102261.22;4099878;28;20031;-78
2021/10/23 03:59:50;;;;;;;6.78;5.50;;;5.60;99.90;;;5.12;98.55;102277.16;4109301;28;20023;-78
2021/10/23 04:01:51;;;;;;;6.78;4.68;;;5.60;99.90;;;5.09;99.07;102277.31;4118527;28;20125;-78
2021/10/23 04:03:53;;;;;;;5.20;4.63;;;5.50;99.90;;;5.12;99.05;102282.38;4118560;28;20045;-78
2021/10/23 04:05:54;;;;;;;6.50;4.45;;;5.50;99.90;;;5.10;98.78;102271.16;4119337;28;20113;-78
2021/10/23 04:07:55;;;;;;;5.97;4.80;;;5.50;99.90;;;5.05;98.70;102265.34;4119612;28;20437;-78
2021/10/23 04:09:58;;;;;;;6.13;4.57;;;5.50;99.90;;;5.09;98.27;102279.94;4119271;28;20034;-78
2021/10/23 04:11:59;;;;;;;6.88;5.38;;;5.50;99.90;;;5.05;98.99;102274.00;4119603;28;20035;-78
2021/10/23 04:14:00;;;;;;;6.18;5.03;;;5.50;99.90;;;5.13;98.29;102271.00;4119201;28;20095;-78
2021/10/23 04:16:00;;;;;;;7.15;5.13;;;5.50;99.90;;;5.10;97.72;102261.56;4102263;28;20066;-78
2021/10/23 04:18:02;;;;;;;7.28;4.43;;;5.50;99.90;;;5.02;97.61;102267.19;4110680;28;20249;-78
2021/10/23 04:20:05;;;;;;;7.13;5.32;;;5.40;99.90;;;5.07;98.15;102264.34;4134037;28;20039;-78
2021/10/23 04:22:07;;;;;;;6.13;4.55;;;5.40;99.90;;;5.02;98.04;102266.34;4102069;28;20118;-78
2021/10/23 04:24:09;;;;;;;6.93;4.45;;;5.50;99.90;;;5.03;98.69;102279.34;4108563;28;20402;-78
2021/10/23 04:26:10;;;;;;;7.15;4.70;;;5.40;99.90;;;4.94;98.98;102265.91;4119358;28;20031;-78
2021/10/23 04:28:11;;;;;;;5.55;5.00;;;5.40;99.90;;;5.05;97.97;102265.34;4118338;28;20034;-78
2021/10/23 04:30:12;;;;;;;6.43;4.35;;;5.40;99.90;;;5.15;97.64;102276.97;4119159;28;20090;-78
2021/10/23 04:32:14;;;;;;;7.70;4.68;;;5.50;99.90;;;4.96;98.25;102279.75;4118170;28;20066;-78
2021/10/23 04:34:15;;;;;;;10.00;5.10;;;5.40;99.90;;;4.87;99.28;102270.63;4118040;28;20035;-78
2021/10/23 04:36:16;;;;;;;6.30;4.95;;;5.40;99.90;;;4.89;98.76;102266.19;4118011;28;20057;-78
2021/10/23 04:38:18;;;;;;;7.65;4.70;;;5.30;99.90;;;4.96;97.36;102264.06;4117794;28;20023;-78
2021/10/23 04:40:19;;;;;;;9.65;6.15;;;5.30;99.90;;;4.82;97.31;102262.19;4119166;28;20027;-78
2021/10/23 04:42:20;;;;;;;7.63;4.88;;;5.40;99.90;;;4.88;97.83;102277.56;4118122;28;20102;-79
2021/10/23 04:44:22;;;;;;;6.78;5.20;;;5.30;99.90;;;4.88;97.60;102261.88;4119136;28;20070;-78
2021/10/23 04:46:23;;;;;;;7.00;5.28;;;5.30;99.90;;;4.84;97.88;102265.56;4118935;28;20027;-78
2021/10/23 04:48:23;;;;;;;7.28;5.13;;;5.30;99.90;;;4.82;97.62;102262.19;4101852;28;20042;-78
2021/10/23 04:50:24;;;;;;;5.60;5.00;;;5.30;99.90;;;4.87;97.60;102267.16;4119061;28;20098;-78
2021/10/23 04:52:25;;;;;;;5.70;4.63;;;5.30;99.90;;;4.85;97.24;102263.78;4117882;28;20031;-79
2021/10/23 04:54:26;;;;;;;6.00;4.45;;;5.20;99.90;;;4.77;97.89;102258.13;4118581;28;20058;-79
2021/10/23 04:56:27;;;;;;;6.68;4.10;;;5.20;99.90;;;4.85;98.01;102271.63;4119010;28;20390;-78
2021/10/23 04:58:28;;;;;;;6.00;5.03;;;5.20;99.90;;;4.99;96.66;102274.34;4119036;28;20084;-78
2021/10/23 05:00:29;;;;;;;6.85;4.40;;;5.30;99.90;;;4.97;96.22;102269.22;4119087;28;20062;-79
2021/10/23 05:02:30;;;;;;;6.28;4.97;;;5.30;99.90;;;4.88;96.56;102254.03;4117675;28;20023;-78
2021/10/23 05:04:31;;;;;;;7.65;5.03;;;5.30;99.90;;;4.75;97.97;102244.31;4117746;28;20038;-79
2021/10/23 05:06:32;;;;;;;5.68;4.82;;;5.20;99.90;;;4.80;97.97;102237.06;4117786;28;20452;-78
2021/10/23 05:08:32;;;;;;;7.22;4.38;;;5.20;99.90;;;4.95;96.85;102244.94;4117348;28;20534;-79
2021/10/23 05:10:33;;;;;;;4.85;4.00;;;5.30;99.90;;;4.89;96.53;102247.88;4100844;28;20098;-78
2021/10/23 05:12:34;;;;;;;5.85;5.07;;;5.30;99.90;;;4.93;96.90;102244.16;4101701;28;20400;-78
2021/10/23 05:14:35;;;;;;;6.95;4.63;;;5.20;99.90;;;4.92;96.43;102241.63;4117776;28;20069;-78
2021/10/23 05:16:36;;;;;;;7.60;4.60;;;5.30;99.90;;;4.85;97.58;102232.41;4117574;28;20034;-78
2021/10/23 05:18:37;;;;;;;5.18;4.18;;;5.30;99.90;;;4.83;97.83;102242.97;4117081;28;20098;-78
2021/10/23 05:20:38;;;;;;;5.78;4.68;;;5.20;99.90;;;4.69;98.50;102240.22;4117549;28;20502;-79
2021/10/23 05:22:39;;;;;;;8.73;4.95;;;5.20;99.90;;;4.62;98.71;102249.34;4118721;28;21158;-78
2021/10/23 05:24:40;;;;;;;4.78;4.38;;;5.20;99.90;;;4.67;99.46;102246.47;4101249;28;20034;-78
2021/10/23 05:26:41;;;;;;;5.78;5.05;;;5.10;99.90;;;4.78;97.78;102244.16;4114530;28;20106;-79
2021/10/23 05:28:42;;;;;;;5.82;4.53;;;5.20;99.90;;;4.73;97.01;102240.91;4117497;28;20039;-79
2021/10/23 05:30:43;;;;;;;5.38;4.38;;;5.10;99.90;;;4.79;97.71;102258.88;4101461;29;20057;-78
2021/10/23 05:32:44;;;;;;;5.50;4.25;;;5.10;99.90;;;4.72;97.78;102247.09;4117293;28;20037;-79
2021/10/23 05:34:46;;;;;;;13.93;5.32;;;5.10;99.90;;;4.58;98.50;102233.88;4118394;28;20023;-79
2021/10/23 05:36:46;;;;;;;5.60;4.97;;;5.10;99.90;;;4.60;98.16;102245.94;4118329;28;20444;-78
2021/10/23 05:38:47;;;;;;;8.52;4.97;;;5.10;99.90;;;4.68;98.19;102253.41;4118240;28;20027;-79
2021/10/23 05:40:48;;;;;;;5.65;5.03;;;5.10;99.90;;;4.69;97.73;102260.31;4118433;28;20084;-78
2021/10/23 05:42:49;;;;;;;7.82;5.03;;;5.10;99.90;;;4.71;96.72;102253.25;4117216;28;20025;-78
2021/10/23 05:44:50;;;;;;;9.18;5.65;;;5.10;99.90;;;4.69;96.20;102249.88;4118292;28;20045;-78
2021/10/23 05:46:51;;;;;;;6.95;4.97;;;5.10;99.90;;;4.76;95.46;102257.28;4101190;28;20057;-78
2021/10/23 05:48:52;;;;;;;6.22;4.70;;;5.20;99.90;;;4.74;95.23;102251.31;4117027;28;20071;-78
2021/10/23 05:50:53;;;;;;;7.05;4.25;;;5.10;99.90;;;4.68;96.24;102264.69;4117061;28;20065;-79
2021/10/23 05:52:55;;;;;;;6.25;4.32;;;5.10;99.90;;;4.59;96.99;102272.19;4118174;28;20461;-79
2021/10/23 05:54:55;;;;;;;5.47;4.80;;;5.00;99.90;;;4.49;97.72;102266.56;4116894;28;20477;-79
2021/10/23 05:56:56;;;;;;;7.38;4.32;;;5.10;99.90;;;4.46;98.31;102249.31;4117039;28;20046;-79
2021/10/23 05:59:11;;;;;;;7.07;4.88;;;5.00;99.90;;;4.50;98.10;102256.97;4117112;28;20027;-78
2021/10/23 06:01:11;;;;;;;8.02;4.88;;;5.00;99.90;;;4.59;97.56;102265.19;4118509;28;20023;-79
2021/10/23 06:03:18;;;;;;;5.07;3.92;;;5.00;99.90;;;4.56;96.86;102260.13;4117046;28;20038;-78
2021/10/23 06:05:19;;;;;;;4.82;4.30;;;5.00;99.90;;;4.56;96.17;102247.06;4116812;28;20034;-78
2021/10/23 06:07:24;;;;;;;9.35;5.65;;;5.00;99.90;;;4.62;95.44;102253.72;4117843;28;20110;-78
2021/10/23 06:09:25;;;;;;;5.45;4.47;;;4.90;99.90;;;4.64;95.45;102262.31;4101130;28;20554;-78
2021/10/23 06:11:26;;;;;;;10.77;5.13;;;4.90;99.90;;;4.40;96.38;102262.69;4108466;28;20026;-78
2021/10/23 06:13:27;;;;;;;5.65;4.88;;;5.00;99.90;;;4.33;96.64;102248.22;4116873;28;20035;-78
2021/10/23 06:15:28;;;;;;;6.00;4.78;;;4.90;99.90;;;4.46;96.98;102259.75;4116697;28;20037;-78
2021/10/23 06:17:29;;;;;;;5.18;4.70;;;4.90;99.90;;;4.51;96.15;102256.88;4117986;28;20023;-78
2021/10/23 06:19:29;;;;;;;6.60;4.47;;;4.90;99.90;;;4.44;93.71;102243.31;4100578;29;20039;-78
2021/10/23 06:21:30;;;;;;;6.43;4.47;;;4.90;99.90;;;4.50;94.31;102259.59;4126244;28;20033;-78
2021/10/23 06:23:32;;;;;;;6.10;4.85;;;4.90;99.90;;;4.33;95.24;102256.06;4116417;28;20494;-78
2021/10/23 06:25:33;;;;;;;6.93;4.97;;;4.90;99.90;;;4.29;96.73;102258.94;4100972;28;20032;-78
2021/10/23 06:27:34;;;;;;;4.95;4.45;;;4.80;99.90;;;4.29;96.69;102257.16;4116648;28;20391;-78
2021/10/23 06:29:35;;;;;;;6.18;4.55;;;4.80;99.90;;;4.49;95.39;102263.97;4100849;28;20074;-78
2021/10/23 06:31:36;;;;;;;6.45;4.45;;;4.80;99.90;;;4.38;94.63;102264.53;4129911;28;20088;-78
2021/10/23 06:33:37;;;;;;;5.80;4.65;;;4.80;99.90;;;4.20;95.69;102262.88;4100493;28;20043;-78
2021/10/23 06:35:38;;;;;;;6.22;4.78;;;4.80;99.90;;;4.23;97.18;102267.94;4148816;28;20049;-78
2021/10/23 06:37:39;;;;;;;8.77;4.88;;;4.70;99.90;;;4.27;96.88;102260.78;4116463;28;20031;-78
2021/10/23 06:39:40;;;;;;;5.57;4.22;;;4.80;99.90;;;4.35;95.53;102251.63;4100077;28;20035;-78
2021/10/23 06:41:41;;;;;;;6.18;4.45;;;4.80;99.90;;;4.39;95.57;102262.78;4104080;28;20113;-78
2021/10/23 06:43:42;;;;;;;6.03;4.38;;;4.70;99.90;;;4.32;96.23;102272.69;4116375;28;20031;-78
2021/10/23 06:45:43;;;;;;;7.68;4.97;;;4.70;99.90;;;4.24;97.23;102261.75;4117725;28;20140;-78
2021/10/23 06:47:44;;;;;;;6.75;4.93;;;4.80;99.90;;;4.27;97.11;102269.44;4117543;28;20027;-78
2021/10/23 06:49:45;;;;;;;5.57;5.03;;;4.80;99.90;;;4.28;96.67;102254.63;4116168;28;20084;-78
2021/10/23 06:51:46;;;;;;;5.38;4.30;;;4.80;99.90;;;4.31;96.92;102267.53;4116363;28;20035;-78
2021/10/23 06:53:47;;;;;;;7.25;4.78;;;4.80;99.90;;;4.22;96.71;102254.94;4116283;28;20065;-78
2021/10/23 06:55:47;;;;;;;5.20;4.47;;;4.80;99.90;;;4.38;96.97;102274.13;4116224;28;20124;-78
2021/10/23 06:57:48;;;;;;;4.88;4.22;;;4.80;99.90;;;4.36;96.20;102268.97;4117474;28;20034;-78
2021/10/23 06:59:49;;;;;;;6.13;4.93;;;4.80;99.90;;;4.37;96.48;102259.38;4100414;29;20103;-78
2021/10/23 07:01:50;;;;;;;9.20;5.07;;;4.80;99.90;;;4.48;95.75;102276.19;4141221;28;20108;-78
2021/10/23 07:03:52;;;;;;;6.18;4.53;;;4.80;99.90;;;4.48;95.91;102263.13;4117433;28;20034;-78
2021/10/23 07:05:53;;;;;;;5.60;5.05;;;4.90;99.90;;;4.51;95.44;102258.69;4117229;28;20098;-79
2021/10/23 07:07:54;;;;;;;4.45;4.05;;;4.90;99.90;;;4.59;94.35;102259.13;4117438;28;20038;-79
2021/10/23 07:09:55;;;;;;;5.88;4.57;;;5.00;99.90;;;4.59;95.06;102266.94;4099987;28;20042;-80
2021/10/23 07:11:56;;;;;;;5.45;4.82;;;5.00;99.90;;;4.56;96.03;102272.34;4111451;28;20038;-78
2021/10/23 07:13:57;;;;;;;7.55;4.47;;;5.00;99.90;;;4.51;96.85;102267.34;4115795;28;20031;-78
2021/10/23 07:15:58;;;;;;;7.00;4.97;;;5.00;99.90;;;4.47;97.11;102271.91;4100371;28;20055;-78
2021/10/23 07:17:59;;;;;;;6.05;4.30;;;5.00;99.90;;;4.51;98.18;102269.94;4124237;28;20058;-78
2021/10/23 07:20:00;;;;;;;8.70;4.95;;;5.00;99.90;;;4.53;97.69;102270.72;4110563;28;20054;-79
2021/10/23 07:22:01;;;;;;;7.10;4.72;;;5.10;99.90;;;4.46;97.46;102272.81;4115826;28;20027;-78
2021/10/23 07:24:02;;;;;;;7.13;5.28;;;5.10;99.90;;;4.34;98.44;102268.22;4115985;28;20114;-78
2021/10/23 07:26:03;;;;;;;6.47;5.10;;;5.00;99.90;;;4.46;98.20;102262.38;4100053;29;20031;-78
2021/10/23 07:28:04;;;;;;;5.63;4.70;;;5.00;99.90;;;4.57;97.17;102258.34;4111716;28;20062;-79
2021/10/23 07:30:08;;;;;;;6.53;4.88;;;5.10;99.90;;;4.67;96.28;102267.38;4117143;28;20030;-78
2021/10/23 07:32:09;;;;;;;;;;;5.10;99.90;;;4.67;96.21;102263.00;4117679;28;20494;-79
2021/10/23 07:34:10;;;;;;;7.78;5.13;;;5.10;99.90;;;4.64;96.74;102262.31;4118201;28;19921;-77
2021/10/23 07:36:13;;;;;;;9.20;5.30;;;5.20;99.90;;;4.67;97.94;102260.38;4117001;28;20023;-78
2021/10/23 07:38:15;;;;;;;6.90;5.75;;;5.20;99.90;;;4.56;98.32;102269.72;4119242;28;20019;-77
2021/10/23 07:40:16;;;;;;;9.75;5.10;;;5.20;99.90;;;4.67;99.06;102280.44;4119347;28;20035;-78
2021/10/23 07:42:17;;;;;;;6.75;5.35;;;5.20;99.90;;;4.83;98.04;102283.97;4119177;28;20038;-79
2021/10/23 07:44:18;;;;;;;7.78;5.35;;;5.40;99.90;;;4.93;97.86;102288.59;4117961;28;20117;-78
2021/10/23 07:46:19;;;;;;;9.02;4.72;;;5.40;99.90;;;4.94;97.81;102286.84;4118112;28;20049;-78
2021/10/23 07:48:20;;;;;;;7.65;4.93;;;5.40;99.90;;;4.97;98.42;102297.13;4119364;28;20031;-79
2021/10/23 07:50:21;;;;;;;5.10;4.60;;;5.50;99.90;;;5.04;99.01;102298.50;4117370;28;20465;-79
2021/10/23 07:52:22;;;;;;;6.13;4.55;;;5.50;99.90;;;5.00;99.20;102291.72;4119190;28;20038;-78
2021/10/23 07:54:23;;;;;;;4.82;4.15;;;5.50;99.90;;;5.02;99.87;102292.47;4118877;28;20031;-79
2021/10/23 07:56:24;;;;;;;5.72;5.07;;;5.60;99.90;;;4.99;100.00;102292.66;4117332;28;20050;-77
2021/10/23 07:58:26;;;;;;;9.30;4.85;;;5.60;99.90;;;5.01;100.00;102299.50;4118783;28;20054;-79
2021/10/23 08:00:27;;;;;;;10.07;5.85;;;5.60;99.90;;;5.14;100.00;102296.25;4118812;28;20038;-78
2021/10/23 08:02:28;;;;;;;9.63;5.28;;;5.70;99.90;;;5.15;100.00;102285.69;4119084;28;20027;-79
2021/10/23 08:04:31;;;;;;;9.13;5.97;;;5.70;99.90;;;5.20;100.00;102301.94;4119291;28;20422;-78
2021/10/23 08:06:32;;;;;;;6.57;5.97;;;5.70;99.90;;;5.24;100.00;102298.25;4119038;28;20061;-79
2021/10/23 08:08:33;;;;;;;8.88;5.97;;;5.80;99.90;;;5.29;100.00;102291.00;4118772;28;20038;-79
2021/10/23 08:10:35;;;;;;;8.57;6.13;;;5.90;99.90;;;5.34;100.00;102296.84;4119080;28;20031;-79
2021/10/23 08:12:36;;;;;;;11.55;7.22;;;5.90;99.90;;;5.34;100.00;102304.69;4117707;28;20031;-79
2021/10/23 08:14:37;;;;;;;10.00;6.90;;;5.90;99.90;;;5.43;100.00;102311.19;4119096;28;20031;-79
2021/10/23 08:16:38;;;;;;;13.15;7.15;;;6.00;99.90;;;5.43;100.00;102309.41;4117599;28;20496;-79
2021/10/23 08:18:39;;;;;;;9.32;6.50;;;6.10;99.90;;;5.56;100.00;102315.63;4118741;28;20047;-79
2021/10/23 08:20:40;;;;;;;10.57;6.78;;;6.10;99.90;;;5.58;100.00;102312.94;4118946;28;20026;-79
2021/10/23 08:22:41;;;;;;;12.40;7.80;;;6.20;99.90;;;5.65;100.00;102322.13;4118739;28;20467;-79
2021/10/23 08:24:42;;;;;;;10.52;7.63;;;6.20;99.90;;;5.76;100.00;102324.16;4117522;28;20106;-79
2021/10/23 08:26:44;;;;;;;11.95;7.20;;;6.30;99.90;;;5.83;100.00;102323.72;4101802;28;20537;-79
2021/10/23 08:28:45;;;;;;;10.77;7.13;;;6.40;99.90;;;5.87;100.00;102312.19;4118018;28;20407;-79
2021/10/23 08:30:46;;;;;;;11.60;7.10;;;6.40;99.90;;;5.90;100.00;102317.25;4117894;28;20101;-79
2021/10/23 08:32:49;;;;;;;11.32;7.47;;;6.50;99.90;;;6.06;100.00;102322.44;4118085;28;20589;-79
2021/10/23 08:34:49;;;;;;;8.32;6.80;;;6.50;99.90;;;6.02;100.00;102320.94;4119057;28;20548;-79